Time;durP1;ratioP1;P1;durP2;ratioP2;P2;SDS_P1;SDS_P2;PMS_P1;PMS_P2;Temp;Humidity;BMP_temperature;BMP_pressure;BME280_temperature;BME280_humidity;BME280_pressure;Samples;Min_cycle;Max_cycle;Signal;HPM_P1;HPM_P2
2022/08/04 00:02:31;;;;;;;26.10;10.13;;;;;;;;;;6151366;23;20084;-88
2022/08/04 00:05:05;;;;;;;26.17;8.52;;;;;;;;;;6154006;23;20026;-89
2022/08/04 00:07:53;;;;;;;25.98;8.95;;;;;;;;;;6151606;23;20475;-89
2022/08/04 00:10:21;;;;;;;26.75;9.45;;;;;;;;;;6151483;23;20507;-89
2022/08/04 00:12:51;;;;;;;24.60;9.45;;;;;;;;;;6154118;23;20025;-89
2022/08/04 00:15:19;;;;;;;25.10;9.98;;;;;;;;;;6151930;23;20075;-88
2022/08/04 00:17:50;;;;;;;24.85;9.68;;;;;;;;;;6152284;23;20029;-88
2022/08/04 00:20:19;;;;;;;23.27;9.88;;;;;;;;;;6153401;23;20080;-89
2022/08/04 00:22:47;;;;;;;29.90;10.93;;;;;;;;;;6153399;23;20518;-89
2022/08/04 00:25:15;;;;;;;31.00;9.75;;;;;;;;;;6152192;23;20029;-89
2022/08/04 00:27:43;;;;;;;27.80;10.10;;;;;;;;;;6152364;23;20076;-90
2022/08/04 00:30:10;;;;;;;35.22;11.15;;;;;;;;;;6152620;23;20085;-89
2022/08/04 00:32:37;;;;;;;;;;;;;;;;;;6154856;23;20068;-89
2022/08/04 00:35:05;;;;;;;38.90;10.85;;;;;;;;;;6155772;23;19916;-89
2022/08/04 00:37:32;;;;;;;;;;;;;;;;;;6154438;23;20021;-88
2022/08/04 00:40:00;;;;;;;27.17;10.93;;;;;;;;;;6153829;23;20321;-89
2022/08/04 00:42:34;;;;;;;36.00;11.10;;;;;;;;;;6152736;23;20068;-90
2022/08/04 00:45:16;;;;;;;33.53;11.68;;;;;;;;;;6154011;23;20021;-89
2022/08/04 00:47:50;;;;;;;29.58;11.38;;;;;;;;;;6152144;23;20532;-89
2022/08/04 00:50:26;;;;;;;38.78;12.25;;;;;;;;;;6153662;23;20017;-89
2022/08/04 00:52:56;;;;;;;37.10;12.55;;;;;;;;;;6152471;23;20033;-89
2022/08/04 00:55:42;;;;;;;37.38;12.73;;;;;;;;;;6152043;23;20018;-89
2022/08/04 00:58:13;;;;;;;35.17;12.38;;;;;;;;;;6152704;23;20030;-91
2022/08/04 01:00:46;;;;;;;40.17;13.02;;;;;;;;;;6153775;23;20351;-91
2022/08/04 01:03:19;;;;;;;41.85;14.38;;;;;;;;;;6152110;23;20018;-89
2022/08/04 01:05:55;;;;;;;45.85;14.27;;;;;;;;;;6152325;23;20021;-89
2022/08/04 01:08:26;;;;;;;48.35;15.55;;;;;;;;;;6151714;23;20030;-89
2022/08/04 01:10:56;;;;;;;36.00;12.45;;;;;;;;;;6154191;23;20022;-88
2022/08/04 01:13:42;;;;;;;42.33;15.13;;;;;;;;;;6152140;23;20504;-89
2022/08/04 01:16:10;;;;;;;47.08;14.07;;;;;;;;;;6151263;23;20048;-89
2022/08/04 01:18:37;;;;;;;;;;;;;;;;;;6151871;23;20057;-89
2022/08/04 01:21:26;;;;;;;35.67;13.82;;;;;;;;;;6152643;23;19920;-89
2022/08/04 01:24:05;;;;;;;46.83;15.88;;;;;;;;;;6152942;23;20029;-89
2022/08/04 01:26:32;;;;;;;;;;;;;;;;;;6152247;23;20463;-89
2022/08/04 01:29:14;;;;;;;49.65;16.02;;;;;;;;;;6153169;23;19967;-88
2022/08/04 01:31:42;;;;;;;47.53;17.05;;;;;;;;;;6150877;23;20065;-88
2022/08/04 01:34:09;;;;;;;;;;;;;;;;;;6153156;23;20494;-89
2022/08/04 01:36:38;;;;;;;42.03;15.82;;;;;;;;;;6152665;23;19924;-92
2022/08/04 01:41:55;;;;;;;59.83;17.65;;;;;;;;;;6153718;23;20021;-89
2022/08/04 01:44:27;;;;;;;50.38;18.70;;;;;;;;;;6152751;23;20402;-88
2022/08/04 01:46:54;;;;;;;60.42;18.00;;;;;;;;;;6153106;23;20077;-90
2022/08/04 01:49:22;;;;;;;53.70;17.85;;;;;;;;;;6151370;23;20021;-89
2022/08/04 01:51:53;;;;;;;55.35;18.70;;;;;;;;;;6151888;23;20025;-88
2022/08/04 01:54:20;;;;;;;48.67;17.33;;;;;;;;;;6152773;23;20025;-89
2022/08/04 01:56:49;;;;;;;60.08;17.73;;;;;;;;;;6151278;23;20017;-89
2022/08/04 01:59:18;;;;;;;58.50;19.38;;;;;;;;;;6152950;23;20025;-90
2022/08/04 02:01:46;;;;;;;50.83;18.00;;;;;;;;;;6151193;23;20026;-89
2022/08/04 02:04:14;;;;;;;60.20;18.75;;;;;;;;;;6152764;23;20121;-90
2022/08/04 02:06:51;;;;;;;36.30;14.93;;;;;;;;;;6152873;23;20097;-88
2022/08/04 02:09:23;;;;;;;51.72;16.77;;;;;;;;;;6153807;23;20021;-90
2022/08/04 02:12:16;;;;;;;47.00;15.82;;;;;;;;;;6154290;23;20293;-89
2022/08/04 02:14:50;;;;;;;41.40;16.95;;;;;;;;;;6148929;23;20025;-90
2022/08/04 02:17:35;;;;;;;76.13;19.52;;;;;;;;;;6152898;23;20029;-90
2022/08/04 02:20:18;;;;;;;60.95;18.60;;;;;;;;;;6152272;23;20017;-89
2022/08/04 02:22:58;;;;;;;73.28;18.70;;;;;;;;;;6150914;23;20017;-88
2022/08/04 02:25:26;;;;;;;47.97;16.08;;;;;;;;;;6151369;23;20462;-89
2022/08/04 02:28:12;;;;;;;57.70;19.05;;;;;;;;;;6152993;23;20420;-89
2022/08/04 02:30:57;;;;;;;50.70;17.98;;;;;;;;;;6151860;23;20022;-90
2022/08/04 02:33:29;;;;;;;62.40;19.23;;;;;;;;;;6150594;23;20687;-90
2022/08/04 02:35:58;;;;;;;64.43;20.25;;;;;;;;;;6149549;23;20029;-89
2022/08/04 02:38:31;;;;;;;61.88;21.13;;;;;;;;;;6150714;23;20470;-89
2022/08/04 02:41:00;;;;;;;82.13;22.42;;;;;;;;;;6151215;23;20471;-88
2022/08/04 02:43:29;;;;;;;60.70;20.90;;;;;;;;;;6152256;23;20029;-89
2022/08/04 02:46:20;;;;;;;51.60;17.70;;;;;;;;;;6151794;23;20051;-88
2022/08/04 02:48:49;;;;;;;70.88;20.92;;;;;;;;;;6151086;23;20033;-89
2022/08/04 02:51:19;;;;;;;59.78;20.10;;;;;;;;;;6152128;23;20076;-90
2022/08/04 02:53:47;;;;;;;61.25;21.38;;;;;;;;;;6150556;23;20560;-90
2022/08/04 02:56:16;;;;;;;57.20;18.60;;;;;;;;;;6150749;23;20022;-90
2022/08/04 02:58:45;;;;;;;62.45;20.15;;;;;;;;;;6152196;23;20026;-89
2022/08/04 03:01:13;;;;;;;64.47;21.17;;;;;;;;;;6152607;23;20022;-89
2022/08/04 03:03:52;;;;;;;39.30;15.55;;;;;;;;;;6151879;23;20104;-89
2022/08/04 03:06:39;;;;;;;62.30;18.60;;;;;;;;;;6149369;23;20021;-89
2022/08/04 03:09:18;;;;;;;82.32;21.08;;;;;;;;;;6151997;23;20077;-89
2022/08/04 03:11:55;;;;;;;52.85;20.70;;;;;;;;;;6150955;23;20072;-90
2022/08/04 03:14:28;;;;;;;78.93;21.45;;;;;;;;;;6151501;23;20029;-90
2022/08/04 03:16:59;;;;;;;67.78;21.05;;;;;;;;;;6150104;23;20463;-89
2022/08/04 03:19:32;;;;;;;59.83;17.95;;;;;;;;;;6150472;23;20081;-90
2022/08/04 03:22:11;;;;;;;65.72;21.27;;;;;;;;;;6152066;23;20029;-88
2022/08/04 03:24:48;;;;;;;65.90;20.30;;;;;;;;;;6150704;23;20092;-89
2022/08/04 03:27:21;;;;;;;67.18;21.92;;;;;;;;;;6151442;23;20025;-89
2022/08/04 03:29:54;;;;;;;69.38;23.02;;;;;;;;;;6151761;23;20360;-89
2022/08/04 03:32:40;;;;;;;61.30;20.75;;;;;;;;;;6152820;23;20036;-89
2022/08/04 03:35:26;;;;;;;54.28;18.00;;;;;;;;;;6152616;23;20021;-89
2022/08/04 03:37:53;;;;;;;50.03;18.27;;;;;;;;;;6151136;23;20022;-88
2022/08/04 03:40:21;;;;;;;;;;;;;;;;;;6152800;23;20029;-90
2022/08/04 03:42:48;;;;;;;52.15;17.05;;;;;;;;;;6152283;23;19928;-89
2022/08/04 03:45:24;;;;;;;48.20;18.02;;;;;;;;;;6153659;23;20044;-88
2022/08/04 03:48:07;;;;;;;62.58;19.58;;;;;;;;;;6152932;23;20017;-91
2022/08/04 03:54:18;;;;;;;62.50;21.83;;;;;;;;;;6153064;23;20097;-90
2022/08/04 03:56:45;;;;;;;61.22;20.73;;;;;;;;;;6151946;23;20029;-88
2022/08/04 03:59:12;;;;;;;;;;;;;;;;;;6152772;23;20529;-89
2022/08/04 04:01:49;;;;;;;53.65;19.15;;;;;;;;;;6149769;23;19920;-90
2022/08/04 04:04:55;;;;;;;32.60;13.93;;;;;;;;;;6151159;23;20455;-90
2022/08/04 04:07:35;;;;;;;35.70;14.80;;;;;;;;;;6151366;23;20052;-90
2022/08/04 04:10:03;;;;;;;39.83;13.93;;;;;;;;;;6151331;23;20030;-88
2022/08/04 04:13:02;;;;;;;47.88;16.33;;;;;;;;;;6150526;23;20109;-90
2022/08/04 04:15:38;;;;;;;35.60;11.65;;;;;;;;;;6150575;23;20150;-90
2022/08/04 04:18:06;;;;;;;33.15;12.73;;;;;;;;;;6151993;23;20026;-89
2022/08/04 04:20:52;;;;;;;25.60;9.57;;;;;;;;;;6150014;23;20080;-91
2022/08/04 04:23:38;;;;;;;32.30;11.60;;;;;;;;;;6151783;23;20045;-89
2022/08/04 04:26:24;;;;;;;39.85;11.60;;;;;;;;;;6150134;23;20025;-89
2022/08/04 04:28:58;;;;;;;32.17;11.23;;;;;;;;;;6149882;23;20328;-89
2022/08/04 04:31:47;;;;;;;34.97;11.27;;;;;;;;;;6151611;23;20402;-89
2022/08/04 04:34:33;;;;;;;38.83;12.55;;;;;;;;;;6149929;23;20471;-89
2022/08/04 04:37:01;;;;;;;37.10;12.57;;;;;;;;;;6149818;23;20026;-91
2022/08/04 04:39:45;;;;;;;43.78;13.00;;;;;;;;;;6150141;23;20022;-88
2022/08/04 04:42:16;;;;;;;38.83;12.15;;;;;;;;;;6150881;23;20533;-89
2022/08/04 04:44:55;;;;;;;39.63;11.75;;;;;;;;;;6150750;23;20458;-89
2022/08/04 04:47:28;;;;;;;32.33;12.60;;;;;;;;;;6153639;23;20503;-89
2022/08/04 04:50:34;;;;;;;32.78;12.43;;;;;;;;;;6152924;23;20113;-89
2022/08/04 04:53:21;;;;;;;29.63;10.60;;;;;;;;;;6152439;23;20029;-89
2022/08/04 04:55:55;;;;;;;27.25;10.35;;;;;;;;;;6152438;23;20095;-89
2022/08/04 04:58:23;;;;;;;36.60;9.80;;;;;;;;;;6152114;23;20080;-90
2022/08/04 05:01:20;;;;;;;31.52;9.40;;;;;;;;;;6153996;23;20529;-89
2022/08/04 05:04:02;;;;;;;23.98;8.85;;;;;;;;;;6136186;23;20072;-89
2022/08/04 05:06:30;;;;;;;34.42;9.68;;;;;;;;;;6153712;23;20029;-90
2022/08/04 05:08:57;;;;;;;;;;;;;;;;;;6153292;23;20466;-90
2022/08/04 05:11:27;;;;;;;30.38;9.00;;;;;;;;;;6153328;23;19975;-90
2022/08/04 05:13:58;;;;;;;28.55;8.73;;;;;;;;;;6153745;23;20574;-88
2022/08/04 05:17:07;;;;;;;33.40;9.00;;;;;;;;;;6154767;23;20093;-90
2022/08/04 05:19:37;;;;;;;35.17;10.63;;;;;;;;;;6155326;23;20036;-89
2022/08/04 05:22:22;;;;;;;29.52;9.60;;;;;;;;;;6153450;23;20013;-89
2022/08/04 05:24:54;;;;;;;35.70;9.52;;;;;;;;;;6153577;23;20017;-90
2022/08/04 05:27:30;;;;;;;21.55;8.25;;;;;;;;;;6151051;23;20018;-89
2022/08/04 05:30:01;;;;;;;31.60;9.90;;;;;;;;;;6151737;23;20025;-89
2022/08/04 05:32:30;;;;;;;26.50;8.65;;;;;;;;;;6152224;23;20402;-89
2022/08/04 05:35:09;;;;;;;26.25;7.88;;;;;;;;;;6151497;23;20068;-90
2022/08/04 05:37:38;;;;;;;34.17;8.60;;;;;;;;;;6152004;23;20025;-89
2022/08/04 05:40:06;;;;;;;27.45;9.02;;;;;;;;;;6150886;23;20029;-90
2022/08/04 05:42:36;;;;;;;35.30;9.88;;;;;;;;;;6151654;23;20072;-90
2022/08/04 05:45:04;;;;;;;28.25;8.10;;;;;;;;;;6152997;23;20025;-89
2022/08/04 05:47:33;;;;;;;35.30;8.20;;;;;;;;;;6151240;23;20105;-89
2022/08/04 05:50:04;;;;;;;25.05;7.47;;;;;;;;;;6150923;23;20029;-90
2022/08/04 05:52:34;;;;;;;18.08;6.63;;;;;;;;;;6152552;23;20022;-89
2022/08/04 05:55:02;;;;;;;19.88;7.05;;;;;;;;;;6150854;23;20026;-90
2022/08/04 05:57:29;;;;;;;21.65;7.18;;;;;;;;;;6150878;23;20025;-89
2022/08/04 05:59:58;;;;;;;21.67;6.50;;;;;;;;;;6152978;23;20407;-90
2022/08/04 06:02:27;;;;;;;16.65;5.30;;;;;;;;;;6152502;23;20048;-88
2022/08/04 06:04:55;;;;;;;20.13;6.03;;;;;;;;;;6152465;23;20025;-89
2022/08/04 06:07:25;;;;;;;22.10;6.40;;;;;;;;;;6152133;23;20064;-89
2022/08/04 06:09:52;;;;;;;17.33;5.60;;;;;;;;;;6150455;23;20025;-90
2022/08/04 06:12:25;;;;;;;15.75;5.78;;;;;;;;;;6152874;23;20133;-89
2022/08/04 06:14:54;;;;;;;14.18;5.03;;;;;;;;;;6151861;23;20068;-90
2022/08/04 06:17:29;;;;;;;17.20;5.55;;;;;;;;;;6152435;23;20371;-89
2022/08/04 06:20:17;;;;;;;19.50;5.35;;;;;;;;;;6152720;23;20100;-88
2022/08/04 06:22:52;;;;;;;16.25;5.88;;;;;;;;;;6152119;23;20025;-90
2022/08/04 06:25:21;;;;;;;17.92;5.35;;;;;;;;;;6153171;23;20026;-88
2022/08/04 06:27:48;;;;;;;20.58;5.15;;;;;;;;;;6151418;23;20025;-89
2022/08/04 06:30:18;;;;;;;17.23;4.68;;;;;;;;;;6152336;23;20684;-90
2022/08/04 06:32:48;;;;;;;17.40;5.40;;;;;;;;;;6152653;23;20029;-89
2022/08/04 06:35:17;;;;;;;19.83;4.50;;;;;;;;;;6153027;23;20025;-90
2022/08/04 06:37:45;;;;;;;12.38;4.45;;;;;;;;;;6153250;23;20395;-89
2022/08/04 06:40:14;;;;;;;19.55;4.45;;;;;;;;;;6150345;23;20028;-89
2022/08/04 06:43:00;;;;;;;11.52;4.15;;;;;;;;;;6151652;23;20049;-89
2022/08/04 06:45:28;;;;;;;11.85;4.03;;;;;;;;;;6152145;23;20092;-90
2022/08/04 06:47:55;;;;;;;13.60;3.58;;;;;;;;;;6151827;23;20447;-89
2022/08/04 06:50:22;;;;;;;;;;;;;;;;;;6150322;23;20474;-89
2022/08/04 06:53:10;;;;;;;14.52;3.58;;;;;;;;;;6152235;23;19954;-88
2022/08/04 06:55:38;;;;;;;9.07;4.20;;;;;;;;;;6153707;23;20017;-89
2022/08/04 06:58:07;;;;;;;12.00;3.65;;;;;;;;;;6153739;23;20076;-89
2022/08/04 07:00:35;;;;;;;13.50;3.72;;;;;;;;;;6151047;23;20471;-87
2022/08/04 07:03:03;;;;;;;14.25;4.05;;;;;;;;;;6151074;23;20470;-90
2022/08/04 07:05:31;;;;;;;11.20;3.78;;;;;;;;;;6152312;23;20065;-89
2022/08/04 07:07:59;;;;;;;13.48;4.22;;;;;;;;;;6151562;23;20048;-90
2022/08/04 07:10:30;;;;;;;13.98;3.88;;;;;;;;;;6150169;23;20032;-88
2022/08/04 07:12:58;;;;;;;11.00;3.78;;;;;;;;;;6151983;23;20025;-90
2022/08/04 07:15:27;;;;;;;9.25;3.25;;;;;;;;;;6151541;23;20541;-89
2022/08/04 07:17:58;;;;;;;7.45;3.42;;;;;;;;;;6152945;23;20021;-88
2022/08/04 07:20:27;;;;;;;12.13;3.60;;;;;;;;;;6152935;23;20025;-89
2022/08/04 07:23:02;;;;;;;12.82;3.88;;;;;;;;;;6151209;23;20021;-90
2022/08/04 07:25:29;;;;;;;7.47;3.15;;;;;;;;;;6151373;23;20332;-90
2022/08/04 07:28:17;;;;;;;7.28;2.88;;;;;;;;;;6152405;23;20081;-89
2022/08/04 07:30:44;;;;;;;;;;;;;;;;;;6153258;23;20088;-88
2022/08/04 07:33:11;;;;;;;10.15;2.88;;;;;;;;;;6151061;23;19928;-90
2022/08/04 07:35:39;;;;;;;10.73;3.03;;;;;;;;;;6151044;23;20021;-89
2022/08/04 07:38:26;;;;;;;11.95;3.25;;;;;;;;;;6151181;23;20113;-89
2022/08/04 07:40:54;;;;;;;11.30;3.03;;;;;;;;;;6150564;23;20021;-90
2022/08/04 07:43:22;;;;;;;13.27;3.03;;;;;;;;;;6150306;23;20092;-89
2022/08/04 07:45:49;;;;;;;;;;;;;;;;;;6153068;23;20029;-90
2022/08/04 07:48:17;;;;;;;5.38;2.33;;;;;;;;;;6152848;23;20425;-91
2022/08/04 07:50:46;;;;;;;11.60;3.17;;;;;;;;;;6151873;23;20080;-89
2022/08/04 07:53:13;;;;;;;11.60;3.20;;;;;;;;;;6151007;23;20888;-88
2022/08/04 07:56:02;;;;;;;12.48;3.30;;;;;;;;;;6152022;23;20097;-90
2022/08/04 07:58:29;;;;;;;7.55;2.85;;;;;;;;;;6152738;23;20033;-90
2022/08/04 08:00:58;;;;;;;10.57;2.95;;;;;;;;;;6151122;23;20084;-89
2022/08/04 08:03:26;;;;;;;8.35;2.88;;;;;;;;;;6151991;23;20033;-91
2022/08/04 08:05:54;;;;;;;7.35;2.78;;;;;;;;;;6150604;23;20041;-89
2022/08/04 08:08:41;;;;;;;8.63;2.90;;;;;;;;;;6152300;23;20528;-89
2022/08/04 08:11:08;;;;;;;5.60;2.85;;;;;;;;;;6150264;23;20021;-89
2022/08/04 08:13:36;;;;;;;11.98;2.85;;;;;;;;;;6150481;23;20254;-89
2022/08/04 08:16:04;;;;;;;9.57;2.58;;;;;;;;;;6148633;23;20392;-88
2022/08/04 08:18:32;;;;;;;9.23;3.55;;;;;;;;;;6152666;23;20033;-87
2022/08/04 08:20:59;;;;;;;11.13;3.20;;;;;;;;;;6154374;23;20406;-90
2022/08/04 08:23:29;;;;;;;7.25;2.75;;;;;;;;;;6152997;23;20410;-91
2022/08/04 08:25:57;;;;;;;9.93;2.85;;;;;;;;;;6152941;23;20458;-89
2022/08/04 08:28:25;;;;;;;14.02;3.20;;;;;;;;;;6152902;23;20022;-89
2022/08/04 08:30:52;;;;;;;;;;;;;;;;;;6154773;23;20034;-90
2022/08/04 08:33:20;;;;;;;6.63;2.47;;;;;;;;;;6152513;23;19967;-90
2022/08/04 08:36:07;;;;;;;8.45;2.67;;;;;;;;;;6154088;23;20017;-89
2022/08/04 08:38:42;;;;;;;6.82;2.88;;;;;;;;;;6144496;23;20017;-89
2022/08/04 08:41:09;;;;;;;9.80;2.60;;;;;;;;;;6156439;23;20025;-88
2022/08/04 08:43:37;;;;;;;6.65;2.65;;;;;;;;;;6155291;23;20093;-89
2022/08/04 08:46:30;;;;;;;8.65;3.15;;;;;;;;;;6154145;23;20467;-89
2022/08/04 08:49:34;;;;;;;7.45;2.40;;;;;;;;;;6154841;23;20072;-88
2022/08/04 08:52:40;;;;;;;6.78;2.38;;;;;;;;;;6152356;23;20436;-89
2022/08/04 08:55:40;;;;;;;4.88;2.30;;;;;;;;;;6151296;23;20101;-89
2022/08/04 08:58:28;;;;;;;4.38;2.20;;;;;;;;;;6152092;23;20025;-90
2022/08/04 09:00:59;;;;;;;8.37;2.43;;;;;;;;;;6137358;23;20017;-90
2022/08/04 09:03:38;;;;;;;3.65;1.73;;;;;;;;;;6153899;23;20265;-90
2022/08/04 09:06:21;;;;;;;5.28;2.03;;;;;;;;;;6153142;23;20493;-90
2022/08/04 09:09:00;;;;;;;4.85;2.10;;;;;;;;;;6152753;23;20061;-90
2022/08/04 09:11:32;;;;;;;5.53;2.17;;;;;;;;;;6152664;23;20026;-90
2022/08/04 09:14:29;;;;;;;8.18;2.20;;;;;;;;;;6153827;23;20029;-90
2022/08/04 09:17:09;;;;;;;4.43;2.20;;;;;;;;;;6140927;23;20021;-90
2022/08/04 09:19:39;;;;;;;6.18;2.00;;;;;;;;;;6153268;23;20032;-91
2022/08/04 09:22:26;;;;;;;6.28;1.80;;;;;;;;;;6151926;23;20018;-90
2022/08/04 09:25:00;;;;;;;3.83;2.00;;;;;;;;;;6153681;23;20026;-90
2022/08/04 09:27:31;;;;;;;5.95;1.83;;;;;;;;;;6150294;23;20526;-88
2022/08/04 09:30:04;;;;;;;6.00;2.25;;;;;;;;;;6153147;23;20025;-90
2022/08/04 09:32:35;;;;;;;9.02;2.08;;;;;;;;;;6151124;23;20092;-91
2022/08/04 09:35:05;;;;;;;9.23;2.47;;;;;;;;;;6152564;23;20026;-90
2022/08/04 09:37:35;;;;;;;5.32;2.30;;;;;;;;;;6152069;23;20104;-90
2022/08/04 09:40:32;;;;;;;5.80;2.10;;;;;;;;;;6151564;23;20025;-90
2022/08/04 09:43:28;;;;;;;12.23;2.90;;;;;;;;;;6152779;23;20025;-91
2022/08/04 09:46:20;;;;;;;18.98;2.50;;;;;;;;;;6152774;23;20419;-90
2022/08/04 09:48:52;;;;;;;6.78;2.67;;;;;;;;;;6153438;23;20025;-90
2022/08/04 09:51:39;;;;;;;7.28;2.75;;;;;;;;;;6151870;23;20025;-90
2022/08/04 09:54:37;;;;;;;8.13;2.83;;;;;;;;;;6153036;23;20044;-92
2022/08/04 09:57:23;;;;;;;7.10;2.97;;;;;;;;;;6151381;23;20018;-91
2022/08/04 10:00:05;;;;;;;7.00;2.80;;;;;;;;;;6151938;23;20029;-90
2022/08/04 10:02:36;;;;;;;9.23;3.10;;;;;;;;;;6153169;23;20029;-91
2022/08/04 10:05:07;;;;;;;5.20;2.72;;;;;;;;;;6153044;23;20025;-92
2022/08/04 10:07:55;;;;;;;5.63;2.97;;;;;;;;;;6152598;23;20030;-93
2022/08/04 10:10:55;;;;;;;7.40;3.00;;;;;;;;;;6153463;23;20128;-90
2022/08/04 10:13:37;;;;;;;6.72;2.92;;;;;;;;;;6152855;23;20017;-90
2022/08/04 10:16:05;;;;;;;9.05;2.80;;;;;;;;;;6153585;23;20017;-92
2022/08/04 10:18:39;;;;;;;3.40;2.50;;;;;;;;;;6154688;23;20025;-91
2022/08/04 10:21:10;;;;;;;5.32;2.75;;;;;;;;;;6153740;23;20026;-91
2022/08/04 10:23:46;;;;;;;7.40;2.30;;;;;;;;;;6153709;23;20426;-91
2022/08/04 10:26:26;;;;;;;5.05;2.55;;;;;;;;;;6154643;23;20029;-93
2022/08/04 10:28:57;;;;;;;4.95;2.47;;;;;;;;;;6153821;23;20022;-91
2022/08/04 10:31:35;;;;;;;6.57;2.20;;;;;;;;;;6153147;23;20075;-92
2022/08/04 10:34:06;;;;;;;4.90;2.50;;;;;;;;;;6153908;23;20075;-91
2022/08/04 10:36:49;;;;;;;4.95;2.10;;;;;;;;;;6156516;23;20076;-93
2022/08/04 10:39:18;;;;;;;8.60;2.50;;;;;;;;;;6154226;23;20328;-90
2022/08/04 10:42:13;;;;;;;4.07;1.95;;;;;;;;;;6154224;23;20387;-91
2022/08/04 10:44:47;;;;;;;8.57;2.70;;;;;;;;;;6154130;23;20021;-92
2022/08/04 10:47:17;;;;;;;4.30;1.90;;;;;;;;;;6151259;23;20076;-91
2022/08/04 10:49:50;;;;;;;4.18;2.20;;;;;;;;;;6152411;23;20550;-91
2022/08/04 10:52:27;;;;;;;5.40;2.08;;;;;;;;;;6151488;23;20443;-91
2022/08/04 10:55:02;;;;;;;3.85;2.08;;;;;;;;;;6152218;23;20790;-91
2022/08/04 10:57:30;;;;;;;3.67;2.05;;;;;;;;;;6152511;23;20021;-92
2022/08/04 11:00:29;;;;;;;4.28;2.30;;;;;;;;;;6153995;23;20470;-91
2022/08/04 11:03:07;;;;;;;4.68;2.15;;;;;;;;;;6104337;23;20025;-91
2022/08/04 11:05:53;;;;;;;4.63;2.42;;;;;;;;;;6153408;23;20029;-91
2022/08/04 11:08:30;;;;;;;5.97;2.17;;;;;;;;;;6152545;23;20026;-91
2022/08/04 11:11:00;;;;;;;6.97;2.17;;;;;;;;;;6152838;23;20360;-92
2022/08/04 11:13:30;;;;;;;6.15;2.13;;;;;;;;;;6152182;23;20022;-91
2022/08/04 11:16:00;;;;;;;3.67;2.10;;;;;;;;;;6153376;23;20029;-93
2022/08/04 11:18:35;;;;;;;7.90;2.45;;;;;;;;;;6153649;23;20386;-90
2022/08/04 11:21:10;;;;;;;3.60;2.17;;;;;;;;;;6152206;23;20017;-91
2022/08/04 11:23:38;;;;;;;6.60;2.42;;;;;;;;;;6153624;23;20021;-91
2022/08/04 11:26:09;;;;;;;5.97;2.30;;;;;;;;;;6152934;23;20088;-91
2022/08/04 11:28:42;;;;;;;7.25;2.40;;;;;;;;;;6155193;23;20018;-91
2022/08/04 11:31:14;;;;;;;7.32;2.58;;;;;;;;;;6152177;23;20047;-93
2022/08/04 11:34:07;;;;;;;6.85;2.50;;;;;;;;;;6153781;23;20709;-90
2022/08/04 11:36:44;;;;;;;8.32;2.67;;;;;;;;;;6150881;23;20105;-91
2022/08/04 11:39:11;;;;;;;7.55;2.97;;;;;;;;;;6152765;23;20080;-92
2022/08/04 11:41:47;;;;;;;7.63;2.75;;;;;;;;;;6153469;23;20029;-91
2022/08/04 11:44:22;;;;;;;5.65;2.58;;;;;;;;;;6152027;23;20045;-92
2022/08/04 11:46:56;;;;;;;6.30;2.42;;;;;;;;;;6151857;23;20021;-91
2022/08/04 11:49:36;;;;;;;5.78;2.50;;;;;;;;;;6152742;23;20589;-92
2022/08/04 11:52:24;;;;;;;10.18;3.35;;;;;;;;;;6152615;23;20101;-91
2022/08/04 11:54:51;;;;;;;10.27;2.63;;;;;;;;;;6154908;23;20026;-91
2022/08/04 11:57:21;;;;;;;6.03;2.60;;;;;;;;;;6155715;23;20017;-91
2022/08/04 11:59:55;;;;;;;8.77;2.63;;;;;;;;;;6154400;23;20040;-91
2022/08/04 12:02:41;;;;;;;10.90;2.90;;;;;;;;;;6154771;23;20335;-91
2022/08/04 12:05:09;;;;;;;8.02;2.80;;;;;;;;;;6154237;23;20048;-92
2022/08/04 12:08:08;;;;;;;7.75;3.10;;;;;;;;;;6154675;23;20097;-93
2022/08/04 12:10:47;;;;;;;9.07;3.20;;;;;;;;;;6154693;23;20080;-92
2022/08/04 12:13:25;;;;;;;8.15;2.92;;;;;;;;;;6155230;23;20021;-92
2022/08/04 12:15:58;;;;;;;10.77;2.80;;;;;;;;;;6154709;23;20080;-93
2022/08/04 12:18:25;;;;;;;9.43;3.10;;;;;;;;;;6155709;23;20076;-91
2022/08/04 12:21:00;;;;;;;10.30;3.10;;;;;;;;;;6153743;23;20017;-91
2022/08/04 12:23:32;;;;;;;9.80;2.80;;;;;;;;;;6152547;23;20018;-91
2022/08/04 12:26:03;;;;;;;9.82;2.83;;;;;;;;;;6153488;23;20022;-91
2022/08/04 12:28:40;;;;;;;8.48;3.42;;;;;;;;;;6153912;23;20092;-91
2022/08/04 12:31:30;;;;;;;6.88;2.92;;;;;;;;;;6154577;23;20022;-92
2022/08/04 12:34:02;;;;;;;7.55;2.88;;;;;;;;;;6156196;23;20060;-92
2022/08/04 12:36:39;;;;;;;12.20;3.30;;;;;;;;;;6153874;23;20021;-91
2022/08/04 12:39:16;;;;;;;8.75;2.63;;;;;;;;;;6153316;23;20025;-91
2022/08/04 12:42:08;;;;;;;13.05;3.28;;;;;;;;;;6153610;23;20025;-91
2022/08/04 12:44:37;;;;;;;11.27;3.20;;;;;;;;;;6153614;23;20613;-91
2022/08/04 12:47:10;;;;;;;14.57;3.97;;;;;;;;;;6152706;23;20367;-92
2022/08/04 12:49:56;;;;;;;12.48;3.25;;;;;;;;;;6152192;23;20192;-92
2022/08/04 12:52:28;;;;;;;8.95;3.20;;;;;;;;;;6153470;23;20020;-93
2022/08/04 12:55:17;;;;;;;8.93;3.25;;;;;;;;;;6153252;23;20108;-91
2022/08/04 12:57:44;;;;;;;9.60;3.17;;;;;;;;;;6153373;23;20083;-91
2022/08/04 13:00:22;;;;;;;13.85;3.45;;;;;;;;;;6152492;23;20030;-92
2022/08/04 13:03:00;;;;;;;11.27;3.00;;;;;;;;;;6153392;23;20026;-92
2022/08/04 13:05:29;;;;;;;11.35;3.10;;;;;;;;;;6152202;23;20029;-91
2022/08/04 13:07:57;;;;;;;10.40;3.25;;;;;;;;;;6153489;23;20018;-92
2022/08/04 13:10:25;;;;;;;8.75;3.03;;;;;;;;;;6154705;23;20021;-93
2022/08/04 13:12:58;;;;;;;16.23;2.90;;;;;;;;;;6153848;23;20076;-91
2022/08/04 13:15:27;;;;;;;16.25;3.30;;;;;;;;;;6154217;23;20420;-92
2022/08/04 13:18:07;;;;;;;11.20;2.78;;;;;;;;;;6153913;23;20033;-91
2022/08/04 13:20:55;;;;;;;9.95;2.53;;;;;;;;;;6153400;23;20101;-90
2022/08/04 13:23:25;;;;;;;12.38;3.28;;;;;;;;;;6153919;23;20022;-93
2022/08/04 13:25:53;;;;;;;11.60;2.92;;;;;;;;;;6154052;23;20068;-92
2022/08/04 13:28:45;;;;;;;14.15;3.22;;;;;;;;;;6153363;23;20053;-91
2022/08/04 13:31:17;;;;;;;14.65;2.78;;;;;;;;;;6155198;23;20013;-92
2022/08/04 13:33:46;;;;;;;10.18;3.30;;;;;;;;;;6153314;23;20545;-94
2022/08/04 13:36:14;;;;;;;10.57;2.65;;;;;;;;;;6154120;23;20017;-93
2022/08/04 13:38:49;;;;;;;13.93;3.00;;;;;;;;;;6153942;23;20060;-92
2022/08/04 13:41:17;;;;;;;10.52;3.53;;;;;;;;;;6153571;23;20017;-92
2022/08/04 13:43:46;;;;;;;14.35;3.10;;;;;;;;;;6153789;23;20021;-92
2022/08/04 13:46:36;;;;;;;17.00;3.40;;;;;;;;;;6153696;23;20045;-90
2022/08/04 13:49:07;;;;;;;9.27;3.10;;;;;;;;;;6154318;23;20059;-91
2022/08/04 13:52:05;;;;;;;13.43;3.05;;;;;;;;;;6152905;23;20022;-92
2022/08/04 13:54:47;;;;;;;13.68;3.25;;;;;;;;;;6153202;23;20022;-92
2022/08/04 13:57:27;;;;;;;14.20;3.42;;;;;;;;;;6152699;23;20100;-92
2022/08/04 13:59:57;;;;;;;19.25;3.92;;;;;;;;;;6153413;23;20465;-92
2022/08/04 14:02:37;;;;;;;9.98;3.40;;;;;;;;;;6153196;23;20021;-92
2022/08/04 14:05:09;;;;;;;9.50;3.55;;;;;;;;;;6153518;23;20033;-93
2022/08/04 14:07:46;;;;;;;13.63;3.35;;;;;;;;;;6154262;23;20029;-93
2022/08/04 14:10:14;;;;;;;8.80;3.03;;;;;;;;;;6154304;23;20022;-93
2022/08/04 14:12:49;;;;;;;7.20;2.92;;;;;;;;;;6153239;23;20060;-92
2022/08/04 14:15:35;;;;;;;14.43;3.45;;;;;;;;;;6154283;23;20018;-92
2022/08/04 14:18:23;;;;;;;13.95;3.30;;;;;;;;;;6152968;23;20121;-91
2022/08/04 14:23:19;;;;;;;11.15;3.85;;;;;;;;;;6195326;23;20439;-64
2022/08/04 14:25:46;;;;;;;18.52;3.95;;;;;;;;;;6201393;23;20477;-65
2022/08/04 14:28:13;;;;;;;;;;;;;;;;;;6208861;23;20028;-65
2022/08/04 14:30:40;;;;;;;16.05;4.47;;;;;;;;;;6208796;23;19966;-64
2022/08/04 14:33:11;;;;;;;15.40;5.30;;;;;;;;;;6207731;23;20021;-66
2022/08/04 14:35:59;;;;;;;15.65;4.95;;;;;;;;;;6206612;23;20064;-66
2022/08/04 14:38:43;;;;;;;16.20;5.05;;;;;;;;;;6209350;23;20140;-68
2022/08/04 14:41:11;;;;;;;15.25;5.10;;;;;;;;;;6196014;23;20032;-67
2022/08/04 14:43:50;;;;;;;15.77;5.28;;;;;;;;;;6147125;23;20100;-67
2022/08/04 14:46:18;;;;;;;12.00;5.38;;;;;;;;;;6147921;23;20406;-67
2022/08/04 14:49:04;;;;;;;16.30;4.75;;;;;;;;;;6149278;23;20466;-66
2022/08/04 14:51:40;;;;;;;8.75;4.80;;;;;;;;;;6148493;23;20025;-67
2022/08/04 14:54:14;;;;;;;;;;;;;;;;;;6123461;23;20022;-67
2022/08/04 14:56:52;;;;;;;10.25;4.90;;;;;;;;;;6148737;23;19921;-62
2022/08/04 14:59:26;;;;;;;12.15;4.75;;;;;;;;;;6148938;23;20105;-62
2022/08/04 15:01:54;;;;;;;15.90;5.22;;;;;;;;;;6148611;23;20025;-62
2022/08/04 15:04:27;;;;;;;13.38;4.20;;;;;;;;;;6148526;23;20017;-62
2022/08/04 15:07:02;;;;;;;19.17;4.80;;;;;;;;;;6147071;23;20049;-63
2022/08/04 15:09:31;;;;;;;9.15;4.50;;;;;;;;;;6148362;23;20479;-63
2022/08/04 15:11:58;;;;;;;;;;;;;;;;;;6147064;23;20479;-63
2022/08/04 15:14:34;;;;;;;13.30;5.28;;;;;;;;;;6147547;23;20015;-52
2022/08/04 15:17:04;;;;;;;13.68;5.22;;;;;;;;;;6148246;23;20056;-63
2022/08/04 15:19:39;;;;;;;20.17;5.68;;;;;;;;;;6146879;23;20407;-62
2022/08/04 15:22:34;;;;;;;13.18;5.45;;;;;;;;;;6147107;23;20095;-63
2022/08/04 15:25:08;;;;;;;12.25;5.32;;;;;;;;;;6147317;23;20021;-63
2022/08/04 15:27:44;;;;;;;14.88;5.05;;;;;;;;;;6146836;23;20044;-63
2022/08/04 15:30:14;;;;;;;15.30;5.03;;;;;;;;;;6149281;23;20061;-64
2022/08/04 15:32:43;;;;;;;16.30;5.55;;;;;;;;;;6147470;23;20065;-61